createdAt,value
2018-01-22T00:01:47.718Z,89.35
2018-01-22T00:04:15.904Z,89.46
2018-01-22T00:06:44.113Z,89.56
2018-01-22T00:09:12.210Z,89.66
2018-01-22T00:11:40.315Z,89.61
2018-01-22T00:14:08.398Z,89.50
2018-01-22T00:16:36.519Z,89.61
2018-01-22T00:19:04.620Z,89.39
2018-01-22T00:21:33.355Z,89.61
2018-01-22T00:24:01.465Z,89.75
2018-01-22T00:26:29.549Z,89.50
2018-01-22T00:28:57.637Z,89.71
2018-01-22T00:31:29.030Z,89.67
2018-01-22T00:33:57.122Z,89.93
2018-01-22T00:36:25.213Z,90.38
2018-01-22T00:38:53.314Z,90.86
2018-01-22T00:41:21.419Z,90.72
2018-01-22T00:43:49.519Z,90.64
2018-01-22T00:46:17.631Z,90.91
2018-01-22T00:48:45.728Z,90.40
2018-01-22T00:51:13.827Z,89.94
2018-01-22T00:53:41.930Z,91.14
2018-01-22T00:56:10.029Z,91.26
2018-01-22T00:58:46.398Z,91.19
2018-01-22T01:01:14.508Z,91.31
2018-01-22T01:03:42.602Z,91.16
2018-01-22T01:06:10.719Z,91.10
2018-01-22T01:08:38.816Z,92.02
2018-01-22T01:11:06.905Z,91.65
2018-01-22T01:13:35.016Z,91.66
2018-01-22T01:16:03.116Z,92.18
2018-01-22T01:18:32.231Z,92.05
2018-01-22T01:21:00.322Z,91.90
2018-01-22T01:23:28.428Z,91.73
2018-01-22T01:26:21.150Z,92.21
2018-01-22T01:28:49.247Z,91.67
2018-01-22T01:31:17.345Z,92.06
2018-01-22T01:33:45.443Z,91.49
2018-01-22T01:36:13.544Z,91.60
2018-01-22T01:38:41.637Z,91.80
2018-01-22T01:41:09.739Z,91.80
2018-01-22T01:43:37.826Z,91.93
2018-01-22T01:46:05.924Z,91.97
2018-01-22T01:48:34.021Z,91.87
2018-01-22T01:51:02.111Z,92.02
2018-01-22T01:53:30.235Z,91.74
2018-01-22T01:55:58.314Z,91.80
2018-01-22T01:58:26.413Z,92.22
2018-01-22T02:00:54.520Z,92.28
2018-01-22T02:03:22.616Z,92.33
2018-01-22T02:05:50.729Z,92.33
2018-01-22T02:08:18.805Z,93.13
2018-01-22T02:10:57.742Z,92.92
2018-01-22T02:13:25.848Z,93.26
2018-01-22T02:15:53.939Z,93.30
2018-01-22T02:18:22.030Z,93.21
2018-01-22T02:20:50.136Z,93.27
2018-01-22T02:23:18.218Z,93.37
2018-01-22T02:25:46.317Z,93.57
2018-01-22T02:28:14.411Z,93.39
2018-01-22T02:30:42.512Z,93.48
2018-01-22T02:33:10.622Z,93.58
2018-01-22T02:35:38.714Z,93.66
2018-01-22T02:38:06.802Z,93.55
2018-01-22T02:40:34.916Z,93.56
2018-01-22T02:43:03.010Z,93.67
2018-01-22T02:45:31.098Z,93.62
2018-01-22T02:47:59.208Z,93.63
2018-01-22T02:50:27.329Z,93.47
2018-01-22T02:52:55.410Z,93.53
2018-01-22T02:55:23.528Z,93.66
2018-01-22T02:57:51.765Z,93.68
2018-01-22T03:00:19.871Z,93.77
2018-01-22T03:02:47.980Z,93.66
2018-01-22T03:05:16.070Z,93.74
2018-01-22T03:07:44.157Z,93.82
2018-01-22T03:10:12.263Z,94.09
2018-01-22T03:12:40.353Z,94.31
2018-01-22T03:15:09.410Z,94.66
2018-01-22T03:17:37.493Z,94.80
2018-01-22T03:20:05.586Z,94.99
2018-01-22T03:22:33.700Z,95.08
2018-01-22T03:25:01.790Z,95.13
2018-01-22T03:27:36.130Z,95.17
2018-01-22T03:30:04.226Z,95.29
2018-01-22T03:32:32.325Z,95.04
2018-01-22T03:35:00.421Z,94.94
2018-01-22T03:37:28.515Z,95.02
2018-01-22T03:39:56.631Z,95.02
2018-01-22T03:42:24.727Z,94.81
2018-01-22T03:44:52.835Z,94.96
2018-01-22T03:50:15.845Z,94.70
2018-01-22T03:52:43.943Z,94.72
2018-01-22T03:55:12.034Z,95.36
2018-01-22T03:57:40.135Z,95.29
2018-01-22T04:00:08.224Z,95.17
2018-01-22T04:02:36.349Z,95.38
2018-01-22T04:05:04.454Z,95.34
2018-01-22T04:07:32.554Z,95.39
2018-01-22T04:10:00.709Z,95.39
2018-01-22T04:12:28.815Z,95.54
2018-01-22T04:14:56.991Z,95.67
2018-01-22T04:17:25.243Z,95.61
2018-01-22T04:19:53.334Z,95.60
2018-01-22T04:22:21.499Z,95.80
2018-01-22T04:24:49.581Z,95.84
2018-01-22T04:27:17.696Z,95.85
2018-01-22T04:29:45.777Z,95.91
2018-01-22T04:32:13.896Z,96.14
2018-01-22T04:34:41.992Z,96.17
2018-01-22T04:37:10.100Z,96.09
2018-01-22T04:39:38.196Z,96.18
2018-01-22T04:42:06.308Z,96.28
2018-01-22T04:44:34.411Z,96.35
2018-01-22T04:47:02.500Z,96.39
2018-01-22T04:49:30.694Z,96.48
2018-01-22T04:51:58.796Z,96.57
2018-01-22T04:54:26.897Z,96.55
2018-01-22T04:57:12.915Z,96.70
2018-01-22T04:59:41.029Z,96.78
2018-01-22T05:02:09.113Z,96.71
2018-01-22T05:04:37.219Z,96.66
2018-01-22T05:07:05.324Z,96.73
2018-01-22T05:09:33.435Z,96.79
2018-01-22T05:12:01.573Z,96.85
2018-01-22T05:14:29.644Z,96.85
2018-01-22T05:16:57.746Z,96.87
2018-01-22T05:19:25.852Z,96.98
2018-01-22T05:21:53.976Z,96.92
2018-01-22T05:24:22.087Z,96.96
2018-01-22T05:26:50.192Z,96.79
2018-01-22T05:29:18.299Z,96.86
2018-01-22T05:31:46.399Z,96.51
2018-01-22T05:34:14.506Z,96.25
2018-01-22T05:36:42.599Z,96.64
2018-01-22T05:39:10.703Z,96.92
2018-01-22T05:41:38.808Z,96.72
2018-01-22T05:44:06.898Z,96.59
2018-01-22T05:46:35.008Z,96.72
2018-01-22T05:49:03.090Z,96.72
2018-01-22T05:51:31.176Z,96.65
2018-01-22T05:54:06.214Z,96.76
2018-01-22T05:56:40.627Z,96.64
2018-01-22T05:59:08.718Z,96.71
2018-01-22T06:01:43.372Z,96.09
2018-01-22T06:04:11.482Z,96.42
2018-01-22T06:06:39.594Z,97.03
2018-01-22T06:09:07.759Z,97.31
2018-01-22T06:11:36.787Z,97.43
2018-01-22T06:14:04.886Z,97.21
2018-01-22T06:16:32.979Z,97.60
2018-01-22T06:19:01.072Z,97.58
2018-01-22T06:21:31.113Z,97.73
2018-01-22T06:23:59.228Z,97.53
2018-01-22T06:26:27.358Z,97.35
2018-01-22T06:28:55.468Z,97.11
2018-01-22T06:31:23.567Z,97.26
2018-01-22T06:33:55.167Z,97.43
2018-01-22T06:36:23.276Z,97.45
2018-01-22T06:38:51.361Z,97.20
2018-01-22T06:41:19.468Z,97.13
2018-01-22T06:43:47.571Z,96.68
2018-01-22T06:46:15.654Z,96.68
2018-01-22T06:48:43.763Z,97.11
2018-01-22T06:51:18.886Z,97.51
2018-01-22T06:53:54.148Z,97.84
2018-01-22T06:56:25.328Z,97.19
2018-01-22T06:58:53.421Z,97.51
2018-01-22T07:01:21.513Z,97.46
2018-01-22T07:03:49.628Z,97.68
2018-01-22T07:06:17.731Z,97.84
2018-01-22T07:08:45.813Z,97.69
2018-01-22T07:11:13.925Z,97.32
2018-01-22T07:13:43.946Z,97.51
2018-01-22T07:16:21.829Z,96.91
2018-01-22T07:18:50.845Z,96.70
2018-01-22T07:21:18.952Z,97.09
2018-01-22T07:23:47.063Z,97.77
2018-01-22T07:26:28.981Z,97.91
2018-01-22T07:28:58.089Z,97.49
2018-01-22T07:31:26.200Z,97.59
2018-01-22T07:33:54.318Z,97.61
2018-01-22T07:36:29.350Z,97.45
2018-01-22T07:38:57.449Z,97.73
2018-01-22T07:41:25.564Z,97.98
2018-01-22T07:43:53.684Z,98.03
2018-01-22T07:46:21.802Z,98.13
2018-01-22T07:48:49.916Z,97.97
2018-01-22T07:51:18.022Z,97.91
2018-01-22T07:53:46.141Z,97.89
2018-01-22T07:56:15.204Z,97.85
2018-01-22T07:58:43.309Z,97.65
2018-01-22T08:01:11.410Z,98.09
2018-01-22T08:03:39.516Z,98.09
2018-01-22T08:06:07.624Z,98.08
2018-01-22T08:08:35.745Z,98.26
2018-01-22T08:11:03.855Z,97.98
2018-01-22T08:13:31.980Z,98.08
2018-01-22T08:16:00.087Z,98.16
2018-01-22T08:18:28.189Z,97.86
2018-01-22T08:20:56.299Z,98.04
2018-01-22T08:23:24.397Z,97.83
2018-01-22T08:25:52.507Z,97.73
2018-01-22T08:28:20.608Z,97.75
2018-01-22T08:30:48.727Z,98.14
2018-01-22T08:33:16.840Z,98.26
2018-01-22T08:35:44.967Z,98.01
2018-01-22T08:38:13.070Z,98.21
2018-01-22T08:40:41.201Z,97.92
2018-01-22T08:43:09.306Z,97.79
2018-01-22T08:45:38.392Z,97.70
2018-01-22T08:48:06.522Z,97.90
2018-01-22T08:50:34.649Z,97.72
2018-01-22T08:53:08.663Z,97.78
2018-01-22T08:55:40.693Z,97.77
2018-01-22T08:58:08.819Z,97.71
2018-01-22T09:00:40.701Z,97.70
2018-01-22T09:03:08.840Z,97.70
2018-01-22T09:05:47.453Z,97.56
2018-01-22T09:08:15.569Z,97.36
2018-01-22T09:10:43.681Z,97.44
2018-01-22T09:13:15.429Z,97.12
2018-01-22T09:15:46.452Z,97.24
2018-01-22T09:18:14.581Z,97.55
2018-01-22T09:20:57.230Z,97.73
2018-01-22T09:23:25.343Z,96.78
2018-01-22T09:25:53.438Z,96.98
2018-01-22T09:28:26.773Z,97.23
2018-01-22T09:30:54.869Z,97.35
2018-01-22T09:33:22.985Z,97.28
2018-01-22T09:35:51.113Z,97.25
2018-01-22T09:38:19.219Z,97.22
2018-01-22T09:40:48.279Z,97.23
2018-01-22T09:43:16.398Z,97.32
2018-01-22T09:45:52.162Z,97.33
2018-01-22T09:48:20.275Z,97.40
2018-01-22T09:50:48.377Z,97.69
2018-01-22T09:53:16.509Z,97.92
2018-01-22T09:55:44.618Z,97.95
2018-01-22T09:58:25.957Z,98.03
2018-01-22T10:00:54.084Z,97.71
2018-01-22T10:03:22.186Z,97.68
2018-01-22T10:05:50.300Z,97.39
2018-01-22T10:08:18.401Z,97.22
2018-01-22T10:10:46.505Z,97.36
2018-01-22T10:13:14.619Z,97.00
2018-01-22T10:15:42.740Z,96.75
2018-01-22T10:18:10.852Z,96.42
2018-01-22T10:20:38.976Z,95.60
2018-01-22T10:23:07.102Z,95.45
2018-01-22T10:25:35.225Z,95.35
2018-01-22T10:28:08.761Z,94.94
2018-01-22T10:30:38.778Z,94.92
2018-01-22T10:33:06.873Z,94.06
2018-01-22T10:35:35.008Z,93.22
2018-01-22T10:38:03.106Z,93.46
2018-01-22T10:40:31.233Z,93.47
2018-01-22T10:42:59.333Z,92.87
2018-01-22T10:45:27.443Z,92.53
2018-01-22T10:47:55.555Z,93.41
2018-01-22T10:50:23.668Z,89.34
2018-01-22T10:52:51.796Z,90.36
2018-01-22T10:55:19.893Z,90.47
2018-01-22T10:57:51.258Z,91.00
2018-01-22T11:00:19.368Z,90.49
2018-01-22T11:02:47.458Z,90.76
2018-01-22T11:05:15.583Z,90.21
2018-01-22T11:07:43.678Z,90.66
2018-01-22T11:10:11.825Z,89.83
2018-01-22T11:12:39.939Z,89.68
2018-01-22T11:15:08.090Z,89.78
2018-01-22T11:17:36.195Z,89.79
2018-01-22T11:20:04.289Z,89.86
2018-01-22T11:22:36.557Z,89.85
2018-01-22T11:25:04.676Z,89.32
2018-01-22T11:27:32.783Z,88.88
2018-01-22T11:30:00.886Z,88.40
2018-01-22T11:32:34.689Z,88.38
2018-01-22T11:35:02.814Z,88.72
2018-01-22T11:37:43.533Z,88.06
2018-01-22T11:40:11.655Z,87.52
2018-01-22T11:42:43.169Z,87.79
2018-01-22T11:45:11.404Z,86.92
2018-01-22T11:47:39.647Z,87.20
2018-01-22T11:50:07.847Z,87.49
2018-01-22T11:52:35.945Z,87.72
2018-01-22T11:55:04.060Z,87.52
2018-01-22T11:57:32.175Z,87.71
2018-01-22T12:00:00.286Z,86.93
2018-01-22T12:02:28.401Z,86.95
2018-01-22T12:05:04.421Z,87.56
2018-01-22T12:07:32.532Z,87.47
2018-01-22T12:10:00.656Z,86.05
2018-01-22T12:12:28.776Z,85.92
2018-01-22T12:14:56.892Z,85.55
2018-01-22T12:17:25.018Z,85.49
2018-01-22T12:20:02.842Z,85.49
2018-01-22T12:22:36.959Z,85.77
2018-01-22T12:25:05.061Z,85.25
2018-01-22T12:27:33.189Z,85.62
2018-01-22T12:30:07.880Z,85.20
2018-01-22T12:32:35.996Z,85.12
2018-01-22T12:35:05.039Z,84.83
2018-01-22T12:37:33.167Z,84.90
2018-01-22T12:40:01.254Z,84.77
2018-01-22T12:42:29.367Z,84.49
2018-01-22T12:44:57.480Z,84.51
2018-01-22T12:47:32.153Z,85.07
2018-01-22T12:50:00.268Z,84.85
2018-01-22T12:52:28.383Z,84.31
2018-01-22T12:54:56.477Z,84.43
2018-01-22T12:57:24.592Z,83.30
2018-01-22T12:59:54.647Z,83.65
2018-01-22T13:02:22.760Z,84.31
2018-01-22T13:04:55.412Z,83.50
2018-01-22T13:07:23.510Z,83.10
2018-01-22T13:09:51.628Z,83.10
2018-01-22T13:12:19.723Z,83.40
2018-01-22T13:14:47.825Z,82.83
2018-01-22T13:17:15.927Z,82.92
2018-01-22T13:19:44.015Z,83.18
2018-01-22T13:22:12.128Z,83.29
2018-01-22T13:24:40.236Z,83.24
2018-01-22T13:27:10.304Z,83.52
2018-01-22T13:29:38.425Z,83.89
2018-01-22T13:32:10.039Z,83.54
2018-01-22T13:34:38.130Z,83.54
2018-01-22T13:37:17.898Z,83.89
2018-01-22T13:39:46.956Z,83.68
2018-01-22T13:42:15.057Z,84.16
2018-01-22T13:44:43.158Z,83.87
2018-01-22T13:47:11.283Z,83.70
2018-01-22T13:49:39.384Z,83.54
2018-01-22T13:52:07.477Z,83.49
2018-01-22T13:54:35.578Z,83.04
2018-01-22T13:57:03.701Z,82.50
2018-01-22T13:59:33.775Z,83.37
2018-01-22T14:02:01.879Z,83.30
2018-01-22T14:04:31.958Z,83.10
2018-01-22T14:07:00.081Z,84.27
2018-01-22T14:09:32.386Z,83.51
2018-01-22T14:12:00.485Z,83.89
2018-01-22T14:14:28.591Z,83.75
2018-01-22T14:16:56.727Z,83.74
2018-01-22T14:19:25.179Z,84.11
2018-01-22T14:21:53.277Z,83.41
2018-01-22T14:24:22.370Z,83.62
2018-01-22T14:26:50.476Z,83.79
2018-01-22T14:29:39.021Z,84.10
2018-01-22T14:32:07.110Z,83.99
2018-01-22T14:34:40.963Z,83.99
2018-01-22T14:37:10.974Z,83.58
2018-01-22T14:39:40.074Z,84.02
2018-01-22T14:42:08.200Z,83.69
2018-01-22T14:44:36.298Z,84.29
2018-01-22T14:47:04.408Z,84.21
2018-01-22T14:49:32.530Z,80.92
2018-01-22T14:52:01.684Z,82.24
2018-01-22T14:54:29.795Z,82.95
2018-01-22T14:56:59.865Z,83.75
2018-01-22T14:59:28.016Z,83.54
2018-01-22T15:01:56.107Z,83.36
2018-01-22T15:04:24.206Z,83.67
2018-01-22T15:06:52.301Z,83.80
2018-01-22T15:09:20.422Z,84.02
2018-01-22T15:11:48.532Z,84.33
2018-01-22T15:14:16.652Z,84.02
2018-01-22T15:16:44.756Z,84.11
2018-01-22T15:19:12.860Z,84.15
2018-01-22T15:21:40.958Z,84.17
2018-01-22T15:24:09.056Z,84.52
2018-01-22T15:26:37.158Z,84.72
2018-01-22T15:29:05.254Z,84.62
2018-01-22T15:31:33.354Z,84.78
2018-01-22T15:34:01.461Z,85.05
2018-01-22T15:36:29.553Z,85.15
2018-01-22T15:38:57.706Z,84.79
2018-01-22T15:41:25.818Z,85.04
2018-01-22T15:43:54.838Z,86.43
2018-01-22T15:46:22.947Z,87.18
2018-01-22T15:48:55.195Z,87.70
2018-01-22T15:51:23.322Z,87.61
2018-01-22T15:53:51.468Z,87.41
2018-01-22T15:56:19.560Z,87.74
2018-01-22T15:58:47.671Z,87.45
2018-01-22T16:01:15.773Z,87.30
2018-01-22T16:03:43.875Z,87.13
2018-01-22T16:06:11.978Z,87.04
2018-01-22T16:08:52.336Z,87.48
2018-01-22T16:11:20.464Z,87.64
2018-01-22T16:13:48.574Z,87.44
2018-01-22T16:16:16.666Z,87.81
2018-01-22T16:18:44.774Z,88.03
2018-01-22T16:21:12.861Z,87.82
2018-01-22T16:23:40.961Z,88.19
2018-01-22T16:26:09.068Z,88.12
2018-01-22T16:28:37.173Z,87.89
2018-01-22T16:31:05.291Z,87.98
2018-01-22T16:33:33.376Z,87.80
2018-01-22T16:36:01.478Z,88.11
2018-01-22T16:38:29.575Z,88.00
2018-01-22T16:40:57.696Z,88.01
2018-01-22T16:43:25.799Z,88.16
2018-01-22T16:45:53.920Z,88.73
2018-01-22T16:48:39.910Z,88.74
2018-01-22T16:51:08.938Z,88.82
2018-01-22T16:53:37.057Z,88.73
2018-01-22T16:56:16.308Z,88.81
2018-01-22T16:58:44.412Z,88.91
2018-01-22T17:01:12.524Z,88.80
2018-01-22T17:03:40.628Z,89.05
2018-01-22T17:06:08.721Z,88.84
2018-01-22T17:08:36.834Z,89.00
2018-01-22T17:11:04.933Z,88.98
2018-01-22T17:13:33.072Z,88.95
2018-01-22T17:16:01.196Z,89.11
2018-01-22T17:18:29.308Z,89.13
2018-01-22T17:20:57.402Z,88.76
2018-01-22T17:23:25.656Z,88.60
2018-01-22T17:26:06.277Z,88.48
2018-01-22T17:28:37.967Z,88.44
2018-01-22T17:31:06.066Z,88.21
2018-01-22T17:33:39.933Z,88.00
2018-01-22T17:36:08.050Z,88.10
2018-01-22T17:38:36.152Z,87.84
2018-01-22T17:41:27.830Z,87.81
2018-01-22T17:43:55.922Z,87.87
2018-01-22T17:46:27.677Z,87.87
2018-01-22T17:49:12.892Z,87.68
2018-01-22T17:51:44.494Z,87.73
2018-01-22T17:54:12.577Z,87.96
2018-01-22T17:56:51.032Z,87.46
2018-01-22T17:59:19.126Z,87.18
2018-01-22T18:01:49.164Z,87.32
2018-01-22T18:04:17.253Z,87.00
2018-01-22T18:06:45.342Z,87.34
2018-01-22T18:09:13.484Z,87.02
2018-01-22T18:11:41.607Z,86.93
2018-01-22T18:14:09.725Z,86.97
2018-01-22T18:16:37.846Z,86.71
2018-01-22T18:19:05.968Z,86.54
2018-01-22T18:21:34.057Z,86.81
2018-01-22T18:24:02.171Z,86.78
2018-01-22T18:26:33.452Z,86.73
2018-01-22T18:29:01.571Z,86.24
2018-01-22T18:31:31.647Z,86.56
2018-01-22T18:33:59.738Z,86.56
2018-01-22T18:36:27.851Z,86.72
2018-01-22T18:39:02.708Z,86.54
2018-01-22T18:41:32.740Z,86.66
2018-01-22T18:44:00.833Z,86.40
2018-01-22T18:46:28.937Z,86.24
2018-01-22T18:48:58.991Z,87.51
2018-01-22T18:51:27.121Z,86.44
2018-01-22T18:53:55.225Z,86.48
2018-01-22T18:56:23.333Z,86.58
2018-01-22T18:58:51.435Z,87.15
2018-01-22T19:01:19.548Z,86.83
2018-01-22T19:03:47.637Z,86.67
2018-01-22T19:06:15.755Z,86.76
2018-01-22T19:08:47.650Z,86.58
2018-01-22T19:11:15.759Z,86.82
2018-01-22T19:13:50.622Z,86.58
2018-01-22T19:16:19.645Z,87.20
2018-01-22T19:18:49.696Z,86.73
2018-01-22T19:21:21.426Z,86.62
2018-01-22T19:23:49.535Z,86.76
2018-01-22T19:26:17.660Z,87.38
2018-01-22T19:28:47.682Z,87.30
2018-01-22T19:31:15.789Z,87.13
2018-01-22T19:33:48.136Z,87.47
2018-01-22T19:36:16.265Z,87.19
2018-01-22T19:38:44.376Z,86.85
2018-01-22T19:41:12.528Z,87.15
2018-01-22T19:43:41.481Z,86.83
2018-01-22T19:46:09.589Z,87.29
2018-01-22T19:48:39.656Z,86.95
2018-01-22T19:51:12.012Z,87.03
2018-01-22T19:53:40.140Z,86.16
2018-01-22T19:56:29.599Z,86.71
2018-01-22T19:59:02.564Z,86.70
2018-01-22T20:01:30.676Z,86.92
2018-01-22T20:04:06.901Z,87.20
2018-01-22T20:06:35.021Z,86.97
2018-01-22T20:09:07.056Z,86.78
2018-01-22T20:11:40.207Z,86.54
2018-01-22T20:14:08.313Z,86.93
2018-01-22T20:16:40.136Z,87.07
2018-01-22T20:19:08.239Z,86.71
2018-01-22T20:21:36.340Z,86.56
2018-01-22T20:24:17.855Z,86.54
2018-01-22T20:26:51.773Z,86.97
2018-01-22T20:29:19.882Z,87.67
2018-01-22T20:31:47.992Z,87.35
2018-01-22T20:34:19.689Z,87.34
2018-01-22T20:36:47.796Z,87.30
2018-01-22T20:39:15.911Z,87.24
2018-01-22T20:41:44.009Z,87.10
2018-01-22T20:44:15.442Z,87.41
2018-01-22T20:46:43.608Z,87.36
2018-01-22T20:49:11.728Z,87.46
2018-01-22T20:51:39.837Z,87.67
2018-01-22T20:54:07.944Z,87.11
2018-01-22T20:56:36.068Z,87.59
2018-01-22T20:59:04.159Z,87.53
2018-01-22T21:01:32.261Z,87.37
2018-01-22T21:04:23.506Z,87.50
2018-01-22T21:06:51.621Z,87.39
2018-01-22T21:09:21.672Z,86.74
2018-01-22T21:11:49.769Z,86.95
2018-01-22T21:14:17.885Z,87.38
2018-01-22T21:16:45.970Z,87.31
2018-01-22T21:19:14.096Z,87.52
2018-01-22T21:21:42.185Z,86.68
2018-01-22T21:24:10.282Z,87.10
2018-01-22T21:26:38.396Z,87.06
2018-01-22T21:29:06.486Z,86.99
2018-01-22T21:31:38.214Z,87.09
2018-01-22T21:34:06.324Z,86.56
2018-01-22T21:36:34.445Z,86.41
2018-01-22T21:39:02.549Z,86.89
2018-01-22T21:41:30.660Z,87.31
2018-01-22T21:43:59.676Z,87.22
2018-01-22T21:46:27.758Z,87.05
2018-01-22T21:48:55.875Z,87.02
2018-01-22T21:51:23.974Z,87.09
2018-01-22T21:53:52.065Z,87.30
2018-01-22T21:56:20.191Z,87.00
2018-01-22T21:58:52.000Z,87.15
2018-01-22T22:01:28.335Z,87.55
2018-01-22T22:03:56.441Z,87.36
2018-01-22T22:06:24.570Z,86.97
2018-01-22T22:08:52.678Z,86.86
2018-01-22T22:11:20.784Z,86.91
2018-01-22T22:13:48.882Z,87.07
2018-01-22T22:16:31.338Z,87.02
2018-01-22T22:18:59.455Z,87.18
2018-01-22T22:21:27.573Z,87.50
2018-01-22T22:23:55.771Z,87.69
2018-01-22T22:26:25.895Z,87.59
2018-01-22T22:28:53.993Z,87.83
2018-01-22T22:31:22.097Z,87.89
2018-01-22T22:33:50.239Z,87.78
2018-01-22T22:36:18.337Z,87.97
2018-01-22T22:38:46.447Z,88.04
2018-01-22T22:41:14.556Z,87.94
2018-01-22T22:43:45.796Z,88.58
2018-01-22T22:46:17.433Z,88.99
2018-01-22T22:48:45.547Z,89.64
2018-01-22T22:51:37.433Z,89.72
2018-01-22T22:54:05.545Z,90.32
2018-01-22T22:56:33.667Z,90.85
2018-01-22T22:59:01.766Z,90.93
2018-01-22T23:01:29.871Z,91.05
2018-01-22T23:03:57.975Z,91.16
2018-01-22T23:06:26.084Z,91.30
2018-01-22T23:08:54.182Z,90.97
2018-01-22T23:11:29.948Z,91.08
2018-01-22T23:14:08.672Z,91.26
2018-01-22T23:16:36.826Z,91.55
2018-01-22T23:19:16.150Z,91.33
2018-01-22T23:21:44.259Z,91.28
2018-01-22T23:24:12.345Z,91.42
2018-01-22T23:26:40.460Z,91.33
2018-01-22T23:29:08.569Z,91.43
2018-01-22T23:31:39.939Z,91.79
2018-01-22T23:34:08.085Z,91.80
2018-01-22T23:36:38.159Z,91.89
2018-01-22T23:39:06.267Z,91.86
2018-01-22T23:41:34.363Z,92.27
2018-01-22T23:44:02.477Z,92.05
2018-01-22T23:46:30.565Z,92.74
2018-01-22T23:48:58.670Z,92.63
2018-01-22T23:51:26.766Z,92.10
2018-01-22T23:53:54.858Z,92.16
2018-01-22T23:56:22.976Z,92.28
2018-01-22T23:58:51.084Z,92.23
